SABE/AEP METAR and TAF weather

Enter ICAO airport designator
Station Type Date Time Source
SABE METAR 2021/08/02 03:00 UTC NOAA

SABE 020300Z 09006KT 050V120 0400 R13/P2000N FG OVC001 08/08 Q1031 NOSIG


Station Type Date Time Source
SABE Decoded METAR 2021/08/02 03:00 UTC NOAA

Aeroparque Bs. As. Aerodrome, Argentina (SABE) 34-34S 058-25W 6M
Aug 01, 2021 - 11:00 PM EDT / 2021.08.02 0300 UTC
Wind: from the E (090 degrees) at 7 MPH (6 KT) (direction variable):0
Visibility: less than 1 mile:0
Sky conditions: overcast
Weather: fog
Temperature: 46 F (8 C)
Dew Point: 46 F (8 C)
Relative Humidity: 100%
Pressure (altimeter): 30.45 in. Hg (1031 hPa)
ob: SABE 020300Z 09006KT 050V120 0400 R13/P2000N FG OVC001 08/08 Q1031 NOSIG
cycle: 3

Station Type Date Time Source
SABE TAF 2021/08/02 00:00 UTC NOAA

TAF
AMD SABE 020000Z 0200/0224 090010KT 0200 FG OVC002 TX14/0218Z TN07/0211Z
BECMG 0212/0214 05005KT CAVOK

Example: see airport list